sensor_id;sensor_type;location;lat;lon;timestamp;temperature;humidity
23540;DHT22;11947;50.810;4.394;2022-12-13T00:00:14;-1.80;99.90
23540;DHT22;11947;50.810;4.394;2022-12-13T00:02:41;-1.90;99.90
23540;DHT22;11947;50.810;4.394;2022-12-13T00:05:07;-2.10;99.90
23540;DHT22;11947;50.810;4.394;2022-12-13T00:07:36;-2.30;99.90
23540;DHT22;11947;50.810;4.394;2022-12-13T00:10:03;-2.40;99.90
23540;DHT22;11947;50.810;4.394;2022-12-13T00:12:30;-2.30;99.90
23540;DHT22;11947;50.810;4.394;2022-12-13T00:14:56;-2.20;99.90
23540;DHT22;11947;50.810;4.394;2022-12-13T00:17:21;-2.10;99.90
23540;DHT22;11947;50.810;4.394;2022-12-13T00:19:47;-2.00;99.90
23540;DHT22;11947;50.810;4.394;2022-12-13T00:22:13;-2.00;99.90
23540;DHT22;11947;50.810;4.394;2022-12-13T00:24:40;-2.00;99.90
23540;DHT22;11947;50.810;4.394;2022-12-13T00:27:06;-2.10;99.90
23540;DHT22;11947;50.810;4.394;2022-12-13T00:29:31;-2.20;99.90
23540;DHT22;11947;50.810;4.394;2022-12-13T00:31:57;-2.10;99.90
23540;DHT22;11947;50.810;4.394;2022-12-13T00:34:24;-2.10;99.90
23540;DHT22;11947;50.810;4.394;2022-12-13T00:36:50;-2.10;99.90
23540;DHT22;11947;50.810;4.394;2022-12-13T00:39:16;-2.10;99.90
23540;DHT22;11947;50.810;4.394;2022-12-13T00:41:44;-2.20;99.90
23540;DHT22;11947;50.810;4.394;2022-12-13T00:44:11;-2.20;99.90
23540;DHT22;11947;50.810;4.394;2022-12-13T00:46:38;-2.20;99.90
23540;DHT22;11947;50.810;4.394;2022-12-13T00:49:04;-2.20;99.90
23540;DHT22;11947;50.810;4.394;2022-12-13T00:51:31;-2.30;99.90
23540;DHT22;11947;50.810;4.394;2022-12-13T00:53:58;-2.40;99.90
23540;DHT22;11947;50.810;4.394;2022-12-13T00:56:27;-2.40;99.90
23540;DHT22;11947;50.810;4.394;2022-12-13T00:58:53;-2.40;99.90
23540;DHT22;11947;50.810;4.394;2022-12-13T01:01:23;-2.40;99.90
23540;DHT22;11947;50.810;4.394;2022-12-13T01:03:49;-2.50;99.90
23540;DHT22;11947;50.810;4.394;2022-12-13T01:06:36;-2.40;99.90
23540;DHT22;11947;50.810;4.394;2022-12-13T01:09:04;-2.40;99.90
23540;DHT22;11947;50.810;4.394;2022-12-13T01:11:31;-2.40;99.90
23540;DHT22;11947;50.810;4.394;2022-12-13T01:13:59;-2.30;99.90
23540;DHT22;11947;50.810;4.394;2022-12-13T01:16:25;-2.30;99.90
23540;DHT22;11947;50.810;4.394;2022-12-13T01:18:51;-2.30;99.90
23540;DHT22;11947;50.810;4.394;2022-12-13T01:21:19;-2.30;99.90
23540;DHT22;11947;50.810;4.394;2022-12-13T01:23:45;-2.20;99.90
23540;DHT22;11947;50.810;4.394;2022-12-13T01:26:15;-2.20;99.90
23540;DHT22;11947;50.810;4.394;2022-12-13T01:28:42;-2.20;99.90
23540;DHT22;11947;50.810;4.394;2022-12-13T01:31:10;-2.20;99.90
23540;DHT22;11947;50.810;4.394;2022-12-13T01:33:37;-2.20;99.90
23540;DHT22;11947;50.810;4.394;2022-12-13T01:36:04;-2.20;99.90
23540;DHT22;11947;50.810;4.394;2022-12-13T01:38:30;-2.20;99.90
23540;DHT22;11947;50.810;4.394;2022-12-13T01:40:56;-2.20;99.90
23540;DHT22;11947;50.810;4.394;2022-12-13T01:43:27;-2.20;99.90
23540;DHT22;11947;50.810;4.394;2022-12-13T01:45:52;-2.20;99.90
23540;DHT22;11947;50.810;4.394;2022-12-13T01:48:22;-2.20;99.90
23540;DHT22;11947;50.810;4.394;2022-12-13T01:50:52;-2.20;99.90
23540;DHT22;11947;50.810;4.394;2022-12-13T01:53:31;-2.60;99.90
23540;DHT22;11947;50.810;4.394;2022-12-13T01:56:05;-2.50;99.90
23540;DHT22;11947;50.810;4.394;2022-12-13T01:58:33;-2.60;99.90
23540;DHT22;11947;50.810;4.394;2022-12-13T02:00:59;-2.50;99.90
23540;DHT22;11947;50.810;4.394;2022-12-13T02:03:25;-2.50;99.90
23540;DHT22;11947;50.810;4.394;2022-12-13T02:06:02;-2.50;99.90
23540;DHT22;11947;50.810;4.394;2022-12-13T02:08:30;-2.40;99.90
23540;DHT22;11947;50.810;4.394;2022-12-13T02:10:56;-2.40;99.90
23540;DHT22;11947;50.810;4.394;2022-12-13T02:13:22;-2.50;99.90
23540;DHT22;11947;50.810;4.394;2022-12-13T02:22:02;-2.40;99.90
23540;DHT22;11947;50.810;4.394;2022-12-13T02:25:06;-2.30;99.90
23540;DHT22;11947;50.810;4.394;2022-12-13T02:30:20;-2.30;99.90
23540;DHT22;11947;50.810;4.394;2022-12-13T02:38:48;-2.30;99.90
23540;DHT22;11947;50.810;4.394;2022-12-13T02:41:36;-2.40;99.90
23540;DHT22;11947;50.810;4.394;2022-12-13T02:46:40;-2.20;99.90
23540;DHT22;11947;50.810;4.394;2022-12-13T02:49:08;-2.40;99.90
23540;DHT22;11947;50.810;4.394;2022-12-13T02:51:35;-2.40;99.90
23540;DHT22;11947;50.810;4.394;2022-12-13T02:54:03;-2.20;99.90
23540;DHT22;11947;50.810;4.394;2022-12-13T02:56:38;-2.10;99.90
23540;DHT22;11947;50.810;4.394;2022-12-13T02:59:09;-2.10;99.90
23540;DHT22;11947;50.810;4.394;2022-12-13T03:07:18;-2.40;99.90
23540;DHT22;11947;50.810;4.394;2022-12-13T03:09:57;-2.50;99.90
23540;DHT22;11947;50.810;4.394;2022-12-13T03:12:48;-2.50;99.90
23540;DHT22;11947;50.810;4.394;2022-12-13T03:15:46;-2.50;99.90
23540;DHT22;11947;50.810;4.394;2022-12-13T03:18:19;-2.50;99.90
23540;DHT22;11947;50.810;4.394;2022-12-13T03:20:50;-2.40;99.90
23540;DHT22;11947;50.810;4.394;2022-12-13T03:23:17;-2.30;99.90
23540;DHT22;11947;50.810;4.394;2022-12-13T03:25:43;-2.20;99.90
23540;DHT22;11947;50.810;4.394;2022-12-13T03:28:10;-2.30;99.90
23540;DHT22;11947;50.810;4.394;2022-12-13T03:30:37;-2.40;99.90
23540;DHT22;11947;50.810;4.394;2022-12-13T03:33:03;-2.50;99.90
23540;DHT22;11947;50.810;4.394;2022-12-13T03:35:30;-2.50;99.90
23540;DHT22;11947;50.810;4.394;2022-12-13T03:37:56;-2.50;99.90
23540;DHT22;11947;50.810;4.394;2022-12-13T03:40:22;-2.40;99.90
23540;DHT22;11947;50.810;4.394;2022-12-13T03:42:48;-2.30;99.90
23540;DHT22;11947;50.810;4.394;2022-12-13T03:45:14;-2.30;99.90
23540;DHT22;11947;50.810;4.394;2022-12-13T03:47:43;-2.30;99.90
23540;DHT22;11947;50.810;4.394;2022-12-13T03:50:08;-2.30;99.90
23540;DHT22;11947;50.810;4.394;2022-12-13T03:52:34;-2.30;99.90
23540;DHT22;11947;50.810;4.394;2022-12-13T03:55:00;-2.10;99.90
23540;DHT22;11947;50.810;4.394;2022-12-13T03:57:25;-2.20;99.90
23540;DHT22;11947;50.810;4.394;2022-12-13T03:59:51;-2.10;99.90
23540;DHT22;11947;50.810;4.394;2022-12-13T04:02:17;-2.00;99.90
23540;DHT22;11947;50.810;4.394;2022-12-13T04:04:43;-2.00;99.90
23540;DHT22;11947;50.810;4.394;2022-12-13T04:07:08;-1.90;99.90
23540;DHT22;11947;50.810;4.394;2022-12-13T04:09:34;-2.00;99.90
23540;DHT22;11947;50.810;4.394;2022-12-13T04:12:00;-2.00;99.90
23540;DHT22;11947;50.810;4.394;2022-12-13T04:14:44;-1.90;99.90
23540;DHT22;11947;50.810;4.394;2022-12-13T04:17:09;-2.00;99.90
23540;DHT22;11947;50.810;4.394;2022-12-13T04:19:35;-2.10;99.90
23540;DHT22;11947;50.810;4.394;2022-12-13T04:22:01;-2.00;99.90
23540;DHT22;11947;50.810;4.394;2022-12-13T04:24:27;-2.00;99.90
23540;DHT22;11947;50.810;4.394;2022-12-13T04:26:53;-2.10;99.90
23540;DHT22;11947;50.810;4.394;2022-12-13T04:29:18;-2.10;99.90
23540;DHT22;11947;50.810;4.394;2022-12-13T04:31:44;-2.30;99.90
23540;DHT22;11947;50.810;4.394;2022-12-13T04:34:10;-2.30;99.90
23540;DHT22;11947;50.810;4.394;2022-12-13T04:36:35;-2.40;99.90
23540;DHT22;11947;50.810;4.394;2022-12-13T04:39:03;-2.30;99.90
23540;DHT22;11947;50.810;4.394;2022-12-13T04:41:34;-2.30;99.90
23540;DHT22;11947;50.810;4.394;2022-12-13T04:44:01;-2.40;99.90
23540;DHT22;11947;50.810;4.394;2022-12-13T04:46:27;-2.40;99.90
23540;DHT22;11947;50.810;4.394;2022-12-13T04:48:53;-2.40;99.90
23540;DHT22;11947;50.810;4.394;2022-12-13T04:51:18;-2.30;99.90
23540;DHT22;11947;50.810;4.394;2022-12-13T04:53:44;-2.40;99.90
23540;DHT22;11947;50.810;4.394;2022-12-13T04:56:10;-2.50;99.90
23540;DHT22;11947;50.810;4.394;2022-12-13T04:58:36;-2.20;99.90
23540;DHT22;11947;50.810;4.394;2022-12-13T05:01:04;-2.30;99.90
23540;DHT22;11947;50.810;4.394;2022-12-13T05:03:30;-2.40;99.90
23540;DHT22;11947;50.810;4.394;2022-12-13T05:05:56;-2.40;99.90
23540;DHT22;11947;50.810;4.394;2022-12-13T05:08:21;-2.40;99.90
23540;DHT22;11947;50.810;4.394;2022-12-13T05:10:47;-2.30;99.90
23540;DHT22;11947;50.810;4.394;2022-12-13T05:13:13;-2.20;99.90
23540;DHT22;11947;50.810;4.394;2022-12-13T05:15:38;-2.20;99.90
23540;DHT22;11947;50.810;4.394;2022-12-13T05:18:05;-2.20;99.90
23540;DHT22;11947;50.810;4.394;2022-12-13T05:20:40;-2.20;99.90
23540;DHT22;11947;50.810;4.394;2022-12-13T05:23:09;-2.30;99.90
23540;DHT22;11947;50.810;4.394;2022-12-13T05:25:35;-2.30;99.90
23540;DHT22;11947;50.810;4.394;2022-12-13T05:28:01;-2.30;99.90
23540;DHT22;11947;50.810;4.394;2022-12-13T05:30:26;-2.30;99.90
23540;DHT22;11947;50.810;4.394;2022-12-13T05:32:52;-2.30;99.90
23540;DHT22;11947;50.810;4.394;2022-12-13T05:35:18;-2.40;99.90
23540;DHT22;11947;50.810;4.394;2022-12-13T05:37:45;-2.60;99.90
23540;DHT22;11947;50.810;4.394;2022-12-13T05:40:11;-2.60;99.90
23540;DHT22;11947;50.810;4.394;2022-12-13T05:42:37;-2.60;99.90
23540;DHT22;11947;50.810;4.394;2022-12-13T05:45:06;-2.40;99.90
23540;DHT22;11947;50.810;4.394;2022-12-13T05:47:35;-2.40;99.90
23540;DHT22;11947;50.810;4.394;2022-12-13T05:50:00;-2.50;99.90
23540;DHT22;11947;50.810;4.394;2022-12-13T05:52:32;-2.30;99.90
23540;DHT22;11947;50.810;4.394;2022-12-13T05:54:57;-2.20;99.90
23540;DHT22;11947;50.810;4.394;2022-12-13T05:57:28;-2.20;99.90
23540;DHT22;11947;50.810;4.394;2022-12-13T05:59:57;-2.40;99.90
23540;DHT22;11947;50.810;4.394;2022-12-13T06:02:23;-2.40;99.90
23540;DHT22;11947;50.810;4.394;2022-12-13T06:04:49;-2.40;99.90
23540;DHT22;11947;50.810;4.394;2022-12-13T06:07:14;-2.40;99.90
23540;DHT22;11947;50.810;4.394;2022-12-13T06:09:40;-2.50;99.90
23540;DHT22;11947;50.810;4.394;2022-12-13T06:12:06;-2.50;99.90
23540;DHT22;11947;50.810;4.394;2022-12-13T06:14:34;-2.50;99.90
23540;DHT22;11947;50.810;4.394;2022-12-13T06:17:01;-2.30;99.90
23540;DHT22;11947;50.810;4.394;2022-12-13T06:19:27;-2.40;99.90
23540;DHT22;11947;50.810;4.394;2022-12-13T06:21:53;-2.40;99.90
23540;DHT22;11947;50.810;4.394;2022-12-13T06:24:20;-2.40;99.90
23540;DHT22;11947;50.810;4.394;2022-12-13T06:26:47;-2.50;99.90
23540;DHT22;11947;50.810;4.394;2022-12-13T06:29:15;-2.40;99.90
23540;DHT22;11947;50.810;4.394;2022-12-13T06:31:43;-2.50;99.90
23540;DHT22;11947;50.810;4.394;2022-12-13T06:34:09;-2.60;99.90
23540;DHT22;11947;50.810;4.394;2022-12-13T06:36:35;-2.60;99.90
23540;DHT22;11947;50.810;4.394;2022-12-13T06:39:05;-2.60;99.90
23540;DHT22;11947;50.810;4.394;2022-12-13T06:41:31;-2.50;99.90
23540;DHT22;11947;50.810;4.394;2022-12-13T06:43:57;-2.50;99.90
23540;DHT22;11947;50.810;4.394;2022-12-13T06:46:24;-2.60;99.90
23540;DHT22;11947;50.810;4.394;2022-12-13T06:48:50;-2.70;99.90
23540;DHT22;11947;50.810;4.394;2022-12-13T06:51:16;-2.80;99.90
23540;DHT22;11947;50.810;4.394;2022-12-13T06:53:42;-2.90;99.90
23540;DHT22;11947;50.810;4.394;2022-12-13T06:56:10;-2.80;99.90
23540;DHT22;11947;50.810;4.394;2022-12-13T06:58:36;-2.80;99.90
23540;DHT22;11947;50.810;4.394;2022-12-13T07:01:20;-2.70;99.90
23540;DHT22;11947;50.810;4.394;2022-12-13T07:03:45;-2.70;99.90
23540;DHT22;11947;50.810;4.394;2022-12-13T07:06:17;-2.70;99.90
23540;DHT22;11947;50.810;4.394;2022-12-13T07:08:47;-2.70;99.90
23540;DHT22;11947;50.810;4.394;2022-12-13T07:11:14;-2.70;99.90
23540;DHT22;11947;50.810;4.394;2022-12-13T07:13:40;-2.80;99.90
23540;DHT22;11947;50.810;4.394;2022-12-13T07:16:07;-2.90;99.90
23540;DHT22;11947;50.810;4.394;2022-12-13T07:18:33;-2.80;99.90
23540;DHT22;11947;50.810;4.394;2022-12-13T07:20:59;-2.80;99.90
23540;DHT22;11947;50.810;4.394;2022-12-13T07:23:24;-2.70;99.90
23540;DHT22;11947;50.810;4.394;2022-12-13T07:25:52;-2.80;99.90
23540;DHT22;11947;50.810;4.394;2022-12-13T07:28:22;-2.70;99.90
23540;DHT22;11947;50.810;4.394;2022-12-13T07:30:48;-2.80;99.90
23540;DHT22;11947;50.810;4.394;2022-12-13T07:33:14;-2.80;99.90
23540;DHT22;11947;50.810;4.394;2022-12-13T07:35:40;-2.80;99.90
23540;DHT22;11947;50.810;4.394;2022-12-13T07:38:07;-2.80;99.90
23540;DHT22;11947;50.810;4.394;2022-12-13T07:40:34;-2.80;99.90
23540;DHT22;11947;50.810;4.394;2022-12-13T07:43:00;-2.70;99.90
23540;DHT22;11947;50.810;4.394;2022-12-13T07:45:26;-2.80;99.90
23540;DHT22;11947;50.810;4.394;2022-12-13T07:47:52;-2.90;99.90
23540;DHT22;11947;50.810;4.394;2022-12-13T07:50:18;-2.90;99.90
23540;DHT22;11947;50.810;4.394;2022-12-13T07:52:46;-3.00;99.90
23540;DHT22;11947;50.810;4.394;2022-12-13T07:55:12;-3.10;99.90
23540;DHT22;11947;50.810;4.394;2022-12-13T07:57:38;-3.30;99.90
23540;DHT22;11947;50.810;4.394;2022-12-13T08:00:03;-3.10;99.90
23540;DHT22;11947;50.810;4.394;2022-12-13T08:02:29;-2.90;99.90
23540;DHT22;11947;50.810;4.394;2022-12-13T08:04:55;-2.70;99.90
23540;DHT22;11947;50.810;4.394;2022-12-13T08:07:21;-2.60;99.90
23540;DHT22;11947;50.810;4.394;2022-12-13T08:09:46;-2.60;99.90
23540;DHT22;11947;50.810;4.394;2022-12-13T08:12:12;-2.60;99.90
23540;DHT22;11947;50.810;4.394;2022-12-13T08:14:38;-2.60;99.90
23540;DHT22;11947;50.810;4.394;2022-12-13T08:17:03;-2.50;99.90
23540;DHT22;11947;50.810;4.394;2022-12-13T08:19:29;-2.50;99.90
23540;DHT22;11947;50.810;4.394;2022-12-13T08:21:55;-2.60;99.90
23540;DHT22;11947;50.810;4.394;2022-12-13T08:24:27;-2.50;99.90
23540;DHT22;11947;50.810;4.394;2022-12-13T08:26:54;-2.50;99.90
23540;DHT22;11947;50.810;4.394;2022-12-13T08:29:21;-2.40;99.90
23540;DHT22;11947;50.810;4.394;2022-12-13T08:31:46;-2.40;99.90
23540;DHT22;11947;50.810;4.394;2022-12-13T08:34:12;-2.30;99.90
23540;DHT22;11947;50.810;4.394;2022-12-13T08:36:37;-2.20;99.90
23540;DHT22;11947;50.810;4.394;2022-12-13T08:39:03;-2.10;99.90
23540;DHT22;11947;50.810;4.394;2022-12-13T08:41:29;-2.10;99.90
23540;DHT22;11947;50.810;4.394;2022-12-13T08:43:55;-2.00;99.90
23540;DHT22;11947;50.810;4.394;2022-12-13T08:46:20;-1.90;99.90
23540;DHT22;11947;50.810;4.394;2022-12-13T08:48:46;-1.80;99.90
23540;DHT22;11947;50.810;4.394;2022-12-13T08:51:13;-2.10;99.90
23540;DHT22;11947;50.810;4.394;2022-12-13T08:53:39;-2.10;99.90
23540;DHT22;11947;50.810;4.394;2022-12-13T08:56:08;-1.90;99.90
23540;DHT22;11947;50.810;4.394;2022-12-13T08:58:35;-1.90;99.90
23540;DHT22;11947;50.810;4.394;2022-12-13T09:01:04;-2.00;99.90
23540;DHT22;11947;50.810;4.394;2022-12-13T09:03:34;-2.10;99.90
23540;DHT22;11947;50.810;4.394;2022-12-13T09:06:14;-2.20;99.90
23540;DHT22;11947;50.810;4.394;2022-12-13T09:08:41;-2.40;99.90
23540;DHT22;11947;50.810;4.394;2022-12-13T09:16:20;-2.30;99.90
23540;DHT22;11947;50.810;4.394;2022-12-13T09:18:57;-2.10;99.90
23540;DHT22;11947;50.810;4.394;2022-12-13T09:21:23;-2.00;99.90
23540;DHT22;11947;50.810;4.394;2022-12-13T09:23:49;-1.90;99.90
23540;DHT22;11947;50.810;4.394;2022-12-13T09:26:15;-1.90;99.90
23540;DHT22;11947;50.810;4.394;2022-12-13T09:28:41;-1.60;99.90
23540;DHT22;11947;50.810;4.394;2022-12-13T09:31:18;-1.60;99.90
23540;DHT22;11947;50.810;4.394;2022-12-13T09:33:45;-1.60;99.90
23540;DHT22;11947;50.810;4.394;2022-12-13T09:36:13;-1.50;99.90
23540;DHT22;11947;50.810;4.394;2022-12-13T09:38:39;-1.30;99.90
23540;DHT22;11947;50.810;4.394;2022-12-13T09:43:47;-1.30;99.90
23540;DHT22;11947;50.810;4.394;2022-12-13T09:46:33;-1.30;99.90
23540;DHT22;11947;50.810;4.394;2022-12-13T09:49:02;-1.20;99.90
23540;DHT22;11947;50.810;4.394;2022-12-13T09:51:32;-1.00;99.90
23540;DHT22;11947;50.810;4.394;2022-12-13T09:53:58;-1.00;99.90
23540;DHT22;11947;50.810;4.394;2022-12-13T09:56:26;-0.80;99.90
23540;DHT22;11947;50.810;4.394;2022-12-13T09:58:53;-0.70;99.90
23540;DHT22;11947;50.810;4.394;2022-12-13T10:01:24;-0.60;99.90
23540;DHT22;11947;50.810;4.394;2022-12-13T10:03:51;-0.40;99.90
23540;DHT22;11947;50.810;4.394;2022-12-13T10:06:21;-0.50;99.90
23540;DHT22;11947;50.810;4.394;2022-12-13T10:08:49;-0.30;99.90
23540;DHT22;11947;50.810;4.394;2022-12-13T10:11:18;-0.50;99.90
23540;DHT22;11947;50.810;4.394;2022-12-13T10:13:53;-0.60;99.90
23540;DHT22;11947;50.810;4.394;2022-12-13T10:19:11;-0.70;99.90
23540;DHT22;11947;50.810;4.394;2022-12-13T10:21:41;-0.60;99.90
23540;DHT22;11947;50.810;4.394;2022-12-13T10:26:40;-0.70;99.90
23540;DHT22;11947;50.810;4.394;2022-12-13T10:29:06;-0.60;99.90
23540;DHT22;11947;50.810;4.394;2022-12-13T10:31:44;-0.50;99.90
23540;DHT22;11947;50.810;4.394;2022-12-13T10:34:23;-0.50;99.90
23540;DHT22;11947;50.810;4.394;2022-12-13T10:36:55;-0.40;99.90
23540;DHT22;11947;50.810;4.394;2022-12-13T10:39:41;-0.40;99.90
23540;DHT22;11947;50.810;4.394;2022-12-13T10:42:15;-0.50;99.90
23540;DHT22;11947;50.810;4.394;2022-12-13T10:44:41;-0.40;99.90
23540;DHT22;11947;50.810;4.394;2022-12-13T10:47:15;-0.30;99.90
23540;DHT22;11947;50.810;4.394;2022-12-13T10:49:52;-0.30;99.90
23540;DHT22;11947;50.810;4.394;2022-12-13T10:52:39;-0.10;99.90
23540;DHT22;11947;50.810;4.394;2022-12-13T10:55:30;-0.20;99.90
23540;DHT22;11947;50.810;4.394;2022-12-13T10:57:59;-0.20;99.90
23540;DHT22;11947;50.810;4.394;2022-12-13T11:00:40;-0.20;99.90
23540;DHT22;11947;50.810;4.394;2022-12-13T11:03:09;-0.30;99.90
23540;DHT22;11947;50.810;4.394;2022-12-13T11:05:36;-0.20;99.90
23540;DHT22;11947;50.810;4.394;2022-12-13T11:08:31;-0.10;99.90
23540;DHT22;11947;50.810;4.394;2022-12-13T11:14:01;0.10;99.90
23540;DHT22;11947;50.810;4.394;2022-12-13T11:16:36;0.00;99.90
23540;DHT22;11947;50.810;4.394;2022-12-13T11:19:19;0.00;99.90
23540;DHT22;11947;50.810;4.394;2022-12-13T11:21:49;0.00;99.90
23540;DHT22;11947;50.810;4.394;2022-12-13T11:24:22;0.00;99.90
23540;DHT22;11947;50.810;4.394;2022-12-13T11:26:56;0.10;99.90
23540;DHT22;11947;50.810;4.394;2022-12-13T11:29:48;0.30;99.90
23540;DHT22;11947;50.810;4.394;2022-12-13T11:37:29;0.40;99.90
23540;DHT22;11947;50.810;4.394;2022-12-13T11:40:24;0.60;99.90
23540;DHT22;11947;50.810;4.394;2022-12-13T11:45:52;0.70;99.90
23540;DHT22;11947;50.810;4.394;2022-12-13T11:50:56;0.90;99.90
23540;DHT22;11947;50.810;4.394;2022-12-13T11:56:24;1.30;99.90
23540;DHT22;11947;50.810;4.394;2022-12-13T11:59:43;1.20;99.90
23540;DHT22;11947;50.810;4.394;2022-12-13T12:07:10;1.60;99.90
23540;DHT22;11947;50.810;4.394;2022-12-13T12:09:40;1.60;99.90
23540;DHT22;11947;50.810;4.394;2022-12-13T12:15:19;1.90;99.90
23540;DHT22;11947;50.810;4.394;2022-12-13T12:17:46;2.10;99.90
23540;DHT22;11947;50.810;4.394;2022-12-13T12:20:14;1.80;99.90
23540;DHT22;11947;50.810;4.394;2022-12-13T12:23:12;2.10;99.90
23540;DHT22;11947;50.810;4.394;2022-12-13T12:25:54;2.10;99.90
23540;DHT22;11947;50.810;4.394;2022-12-13T12:34:22;2.40;99.90
23540;DHT22;11947;50.810;4.394;2022-12-13T12:37:05;2.60;99.90
23540;DHT22;11947;50.810;4.394;2022-12-13T12:45:28;2.30;99.90
23540;DHT22;11947;50.810;4.394;2022-12-13T12:47:48;2.10;99.90
23540;DHT22;11947;50.810;4.394;2022-12-13T12:50:29;2.00;99.90
23540;DHT22;11947;50.810;4.394;2022-12-13T12:53:12;2.20;99.90
23540;DHT22;11947;50.810;4.394;2022-12-13T12:58:49;2.10;99.90
23540;DHT22;11947;50.810;4.394;2022-12-13T13:01:52;2.10;99.90
23540;DHT22;11947;50.810;4.394;2022-12-13T13:04:28;1.90;99.90
23540;DHT22;11947;50.810;4.394;2022-12-13T13:07:08;2.00;99.90
23540;DHT22;11947;50.810;4.394;2022-12-13T13:09:35;2.40;99.90
23540;DHT22;11947;50.810;4.394;2022-12-13T13:12:03;2.90;99.90
23540;DHT22;11947;50.810;4.394;2022-12-13T13:14:35;3.20;99.90
23540;DHT22;11947;50.810;4.394;2022-12-13T13:22:31;3.20;99.90
23540;DHT22;11947;50.810;4.394;2022-12-13T13:27:29;2.90;99.90
23540;DHT22;11947;50.810;4.394;2022-12-13T13:30:25;2.90;99.90
23540;DHT22;11947;50.810;4.394;2022-12-13T13:32:53;2.40;99.90
23540;DHT22;11947;50.810;4.394;2022-12-13T13:40:42;2.30;99.90
23540;DHT22;11947;50.810;4.394;2022-12-13T13:48:36;2.10;99.90
23540;DHT22;11947;50.810;4.394;2022-12-13T14:18:44;1.60;99.90
23540;DHT22;11947;50.810;4.394;2022-12-13T14:29:40;1.30;99.90
23540;DHT22;11947;50.810;4.394;2022-12-13T14:32:27;1.20;99.90
23540;DHT22;11947;50.810;4.394;2022-12-13T14:34:55;1.10;99.90
23540;DHT22;11947;50.810;4.394;2022-12-13T14:37:31;1.20;99.90
23540;DHT22;11947;50.810;4.394;2022-12-13T14:39:58;1.00;99.90
23540;DHT22;11947;50.810;4.394;2022-12-13T14:42:32;0.90;99.90
23540;DHT22;11947;50.810;4.394;2022-12-13T14:45:17;0.80;99.90
23540;DHT22;11947;50.810;4.394;2022-12-13T14:47:46;0.70;99.90
23540;DHT22;11947;50.810;4.394;2022-12-13T14:50:15;0.70;99.90
23540;DHT22;11947;50.810;4.394;2022-12-13T14:52:43;0.70;99.90
23540;DHT22;11947;50.810;4.394;2022-12-13T14:55:29;0.70;99.90
23540;DHT22;11947;50.810;4.394;2022-12-13T14:57:57;0.60;99.90
23540;DHT22;11947;50.810;4.394;2022-12-13T15:00:30;0.60;99.90
23540;DHT22;11947;50.810;4.394;2022-12-13T15:02:59;0.50;99.90
23540;DHT22;11947;50.810;4.394;2022-12-13T15:05:37;0.40;99.90
23540;DHT22;11947;50.810;4.394;2022-12-13T15:08:08;0.40;99.90
23540;DHT22;11947;50.810;4.394;2022-12-13T15:10:39;0.30;99.90
23540;DHT22;11947;50.810;4.394;2022-12-13T15:13:05;0.20;99.90
23540;DHT22;11947;50.810;4.394;2022-12-13T15:15:34;0.30;99.90
23540;DHT22;11947;50.810;4.394;2022-12-13T15:20:39;0.20;99.90
23540;DHT22;11947;50.810;4.394;2022-12-13T15:23:18;0.20;99.90
23540;DHT22;11947;50.810;4.394;2022-12-13T15:25:49;0.20;99.90
23540;DHT22;11947;50.810;4.394;2022-12-13T15:28:16;0.30;99.90
23540;DHT22;11947;50.810;4.394;2022-12-13T15:30:43;0.40;99.90
23540;DHT22;11947;50.810;4.394;2022-12-13T15:35:41;0.20;99.90
23540;DHT22;11947;50.810;4.394;2022-12-13T15:38:13;0.20;99.90
23540;DHT22;11947;50.810;4.394;2022-12-13T15:40:49;0.10;99.90
23540;DHT22;11947;50.810;4.394;2022-12-13T15:43:25;0.20;99.90
23540;DHT22;11947;50.810;4.394;2022-12-13T15:45:52;0.10;99.90
23540;DHT22;11947;50.810;4.394;2022-12-13T15:48:31;0.20;99.90
23540;DHT22;11947;50.810;4.394;2022-12-13T15:51:09;0.20;99.90
23540;DHT22;11947;50.810;4.394;2022-12-13T15:53:37;0.00;99.90
23540;DHT22;11947;50.810;4.394;2022-12-13T15:56:25;-0.20;99.90
23540;DHT22;11947;50.810;4.394;2022-12-13T15:58:52;-0.30;99.90
23540;DHT22;11947;50.810;4.394;2022-12-13T16:01:32;-0.20;99.90
23540;DHT22;11947;50.810;4.394;2022-12-13T16:03:58;-0.20;99.90
23540;DHT22;11947;50.810;4.394;2022-12-13T16:06:29;-0.20;99.90
23540;DHT22;11947;50.810;4.394;2022-12-13T16:09:03;-0.30;99.90
23540;DHT22;11947;50.810;4.394;2022-12-13T16:11:33;-0.10;99.90
23540;DHT22;11947;50.810;4.394;2022-12-13T16:16:50;-0.30;99.90
23540;DHT22;11947;50.810;4.394;2022-12-13T16:19:20;-0.40;99.90
23540;DHT22;11947;50.810;4.394;2022-12-13T16:21:45;-0.40;99.90
23540;DHT22;11947;50.810;4.394;2022-12-13T16:24:11;-0.20;99.90
23540;DHT22;11947;50.810;4.394;2022-12-13T16:26:43;-0.20;99.90
23540;DHT22;11947;50.810;4.394;2022-12-13T16:29:13;-0.20;99.90
23540;DHT22;11947;50.810;4.394;2022-12-13T16:31:38;-0.10;99.90
23540;DHT22;11947;50.810;4.394;2022-12-13T16:34:04;-0.20;99.90
23540;DHT22;11947;50.810;4.394;2022-12-13T16:36:31;-0.10;99.90
23540;DHT22;11947;50.810;4.394;2022-12-13T16:38:57;-0.10;99.90
23540;DHT22;11947;50.810;4.394;2022-12-13T16:41:23;0.00;99.90
23540;DHT22;11947;50.810;4.394;2022-12-13T16:44:00;-0.20;99.90
23540;DHT22;11947;50.810;4.394;2022-12-13T16:46:26;0.00;99.90
23540;DHT22;11947;50.810;4.394;2022-12-13T16:48:53;0.00;99.90
23540;DHT22;11947;50.810;4.394;2022-12-13T16:51:19;0.20;99.90
23540;DHT22;11947;50.810;4.394;2022-12-13T16:53:48;0.10;99.90
23540;DHT22;11947;50.810;4.394;2022-12-13T16:56:14;0.20;99.90
23540;DHT22;11947;50.810;4.394;2022-12-13T16:58:46;0.10;99.90
23540;DHT22;11947;50.810;4.394;2022-12-13T17:01:18;0.20;99.90
23540;DHT22;11947;50.810;4.394;2022-12-13T17:03:44;0.10;99.90
23540;DHT22;11947;50.810;4.394;2022-12-13T17:06:11;0.10;99.90
23540;DHT22;11947;50.810;4.394;2022-12-13T17:08:38;0.00;99.90
23540;DHT22;11947;50.810;4.394;2022-12-13T17:11:04;-0.10;99.90
23540;DHT22;11947;50.810;4.394;2022-12-13T17:13:31;-0.30;99.90
23540;DHT22;11947;50.810;4.394;2022-12-13T17:15:56;-0.40;99.90
23540;DHT22;11947;50.810;4.394;2022-12-13T17:18:22;-0.30;99.90
23540;DHT22;11947;50.810;4.394;2022-12-13T17:20:48;-0.30;99.90
23540;DHT22;11947;50.810;4.394;2022-12-13T17:23:16;-0.10;99.90
23540;DHT22;11947;50.810;4.394;2022-12-13T17:25:44;-0.10;99.90
23540;DHT22;11947;50.810;4.394;2022-12-13T17:28:10;-0.10;99.90
23540;DHT22;11947;50.810;4.394;2022-12-13T17:30:36;-0.20;99.90
23540;DHT22;11947;50.810;4.394;2022-12-13T17:33:02;-0.10;99.90
23540;DHT22;11947;50.810;4.394;2022-12-13T17:35:29;-0.10;99.90
23540;DHT22;11947;50.810;4.394;2022-12-13T17:37:58;-0.20;99.90
23540;DHT22;11947;50.810;4.394;2022-12-13T17:40:24;-0.30;99.90
23540;DHT22;11947;50.810;4.394;2022-12-13T17:42:50;-0.30;99.90
23540;DHT22;11947;50.810;4.394;2022-12-13T17:45:17;-0.30;99.90
23540;DHT22;11947;50.810;4.394;2022-12-13T17:47:44;-0.30;99.90
23540;DHT22;11947;50.810;4.394;2022-12-13T17:50:10;-0.30;99.90
23540;DHT22;11947;50.810;4.394;2022-12-13T17:52:38;-0.10;99.90
23540;DHT22;11947;50.810;4.394;2022-12-13T17:55:04;0.00;99.90
23540;DHT22;11947;50.810;4.394;2022-12-13T17:57:30;0.10;99.90
23540;DHT22;11947;50.810;4.394;2022-12-13T17:59:59;-0.10;99.90
23540;DHT22;11947;50.810;4.394;2022-12-13T18:02:25;-0.40;99.90
23540;DHT22;11947;50.810;4.394;2022-12-13T18:04:51;-0.40;99.90
23540;DHT22;11947;50.810;4.394;2022-12-13T18:07:17;-0.50;99.90